Terminal Aerodrome Forecast
Issued by NWS

Home | Current Version | Previous Version | Text Only | Print | Product List | Glossary On
Versions: 1 2 3 4 5 6 7 8 9 10 11 12 13 14 15 16 17
000
FTUS44 KLIX 240522
TAFGPT
TAF
KGPT 240522Z 2406/2506 00000KT P6SM FEW030
     FM241600 14005KT P6SM VCSH SCT025 BKN090
      TEMPO 2418/2422 VRB15G25KT 2SM TSRA BKN030CB
     FM250100 VRB03KT P6SM SCT030 BKN070=

USA.gov is the U.S. government's official web portal to all federal, state and local government web resources and services.